createdAt,value
2022-10-04T00:00:03.504Z,11.94
2022-10-04T00:01:03.511Z,11.88
2022-10-04T00:02:03.620Z,11.88
2022-10-04T00:03:03.766Z,11.88
2022-10-04T00:04:03.912Z,11.88
2022-10-04T00:05:03.880Z,11.88
2022-10-04T00:06:03.840Z,11.88
2022-10-04T00:07:03.978Z,11.88
2022-10-04T00:08:04.096Z,11.88
2022-10-04T00:09:04.228Z,11.88
2022-10-04T00:10:04.405Z,11.88
2022-10-04T00:11:03.594Z,11.88
2022-10-04T00:12:03.585Z,11.88
2022-10-04T00:13:03.584Z,11.88
2022-10-04T00:14:03.516Z,11.88
2022-10-04T00:15:03.580Z,11.88
2022-10-04T00:16:03.767Z,11.81
2022-10-04T00:17:03.739Z,11.81
2022-10-04T00:18:03.828Z,11.81
2022-10-04T00:19:03.856Z,11.81
2022-10-04T00:20:03.898Z,11.81
2022-10-04T00:21:03.985Z,11.81
2022-10-04T00:22:04.147Z,11.75
2022-10-04T00:23:04.220Z,11.75
2022-10-04T00:24:04.249Z,11.75
2022-10-04T00:25:04.217Z,11.75
2022-10-04T00:26:04.304Z,11.75
2022-10-04T00:27:04.408Z,11.75
2022-10-04T00:28:04.452Z,11.75
2022-10-04T00:29:03.509Z,11.75
2022-10-04T00:30:03.584Z,11.75
2022-10-04T00:31:03.529Z,11.75
2022-10-04T00:32:03.595Z,11.69
2022-10-04T00:33:03.594Z,11.69
2022-10-04T00:34:03.660Z,11.69
2022-10-04T00:35:03.662Z,11.69
2022-10-04T00:36:03.985Z,11.69
2022-10-04T00:37:04.090Z,11.69
2022-10-04T00:38:04.070Z,11.69
2022-10-04T00:39:04.151Z,11.69
2022-10-04T00:40:04.237Z,11.69
2022-10-04T00:41:03.605Z,11.62
2022-10-04T00:42:03.588Z,11.62
2022-10-04T00:43:03.666Z,11.62
2022-10-04T00:44:03.747Z,11.62
2022-10-04T00:45:03.831Z,11.62
2022-10-04T00:46:03.862Z,11.62
2022-10-04T00:47:03.579Z,11.62
2022-10-04T00:48:03.673Z,11.56
2022-10-04T00:49:03.665Z,11.62
2022-10-04T00:50:03.680Z,11.62
2022-10-04T00:51:03.751Z,11.62
2022-10-04T00:52:03.661Z,11.62
2022-10-04T00:53:03.664Z,11.62
2022-10-04T00:54:03.743Z,11.62
2022-10-04T00:55:03.911Z,11.56
2022-10-04T00:56:04.067Z,11.56
2022-10-04T00:57:04.233Z,11.56
2022-10-04T00:58:04.232Z,11.56
2022-10-04T00:59:04.225Z,11.50
2022-10-04T01:00:04.305Z,11.56
2022-10-04T01:01:04.405Z,11.56
2022-10-04T01:02:04.454Z,11.50
2022-10-04T01:03:04.486Z,11.50
2022-10-04T01:04:03.503Z,11.50
2022-10-04T01:05:03.677Z,11.50
2022-10-04T01:06:03.589Z,11.50
2022-10-04T01:07:03.750Z,11.44
2022-10-04T01:08:03.773Z,11.50
2022-10-04T01:09:03.833Z,11.44
2022-10-04T01:10:03.848Z,11.44
2022-10-04T01:11:03.823Z,11.44
2022-10-04T01:12:03.900Z,11.44
2022-10-04T01:13:03.996Z,11.44
2022-10-04T01:14:04.068Z,11.44
2022-10-04T01:15:03.990Z,11.44
2022-10-04T01:16:03.901Z,11.38
2022-10-04T01:17:04.003Z,11.38
2022-10-04T01:18:06.360Z,11.38
2022-10-04T01:19:04.065Z,11.38
2022-10-04T01:20:04.242Z,11.31
2022-10-04T01:21:04.146Z,11.31
2022-10-04T01:22:04.223Z,11.31
2022-10-04T01:23:04.310Z,11.31
2022-10-04T01:24:04.312Z,11.31
2022-10-04T01:25:04.307Z,11.25
2022-10-04T01:26:04.474Z,11.25
2022-10-04T01:27:03.508Z,11.25
2022-10-04T01:28:03.612Z,11.25
2022-10-04T01:29:03.603Z,11.19
2022-10-04T01:30:03.586Z,11.19
2022-10-04T01:31:03.710Z,11.12
2022-10-04T01:32:03.662Z,11.12
2022-10-04T01:33:03.755Z,11.12
2022-10-04T01:34:03.838Z,11.06
2022-10-04T01:35:03.830Z,11.06
2022-10-04T01:36:03.865Z,11.00
2022-10-04T01:37:03.910Z,11.00
2022-10-04T01:38:03.828Z,11.00
2022-10-04T01:39:03.925Z,11.00
2022-10-04T01:40:03.832Z,10.94
2022-10-04T01:41:03.906Z,10.94
2022-10-04T01:42:03.907Z,10.94
2022-10-04T01:43:03.826Z,10.94
2022-10-04T01:44:03.999Z,10.94
2022-10-04T01:45:03.901Z,10.88
2022-10-04T01:46:03.965Z,10.88
2022-10-04T01:47:03.908Z,10.88
2022-10-04T01:48:03.917Z,10.88
2022-10-04T01:49:04.306Z,10.88
2022-10-04T01:50:04.393Z,10.81
2022-10-04T01:51:04.381Z,10.81
2022-10-04T01:52:04.467Z,10.81
2022-10-04T01:53:04.381Z,10.75
2022-10-04T01:54:03.508Z,10.75
2022-10-04T01:55:03.499Z,10.75
2022-10-04T01:56:03.506Z,10.75
2022-10-04T01:57:03.513Z,10.69
2022-10-04T01:58:03.517Z,10.69
2022-10-04T01:59:03.515Z,10.62
2022-10-04T02:00:03.667Z,10.62
2022-10-04T02:01:03.792Z,10.56
2022-10-04T02:02:03.825Z,10.56
2022-10-04T02:03:03.739Z,10.50
2022-10-04T02:04:03.823Z,10.50
2022-10-04T02:05:03.869Z,10.50
2022-10-04T02:06:03.815Z,10.44
2022-10-04T02:07:03.818Z,10.38
2022-10-04T02:08:03.898Z,10.38
2022-10-04T02:09:03.994Z,10.38
2022-10-04T02:10:03.982Z,10.38
2022-10-04T02:11:03.737Z,10.31
2022-10-04T02:12:03.760Z,10.31
2022-10-04T02:13:04.145Z,10.25
2022-10-04T02:14:04.218Z,10.19
2022-10-04T02:15:04.312Z,10.19
2022-10-04T02:16:04.079Z,10.19
2022-10-04T02:17:04.074Z,10.19
2022-10-04T02:18:04.091Z,10.12
2022-10-04T02:19:03.984Z,10.06
2022-10-04T02:20:03.757Z,10.06
2022-10-04T02:21:03.914Z,10.06
2022-10-04T02:22:03.907Z,10.00
2022-10-04T02:23:03.915Z,10.00
2022-10-04T02:24:03.863Z,10.00
2022-10-04T02:25:03.905Z,9.94
2022-10-04T02:26:03.824Z,9.94
2022-10-04T02:27:03.899Z,9.94
2022-10-04T02:28:03.951Z,9.88
2022-10-04T02:29:04.019Z,9.88
2022-10-04T02:30:04.069Z,9.88
2022-10-04T02:31:04.046Z,9.88
2022-10-04T02:32:04.066Z,9.81
2022-10-04T02:33:03.977Z,9.81
2022-10-04T02:34:03.973Z,9.81
2022-10-04T02:35:03.978Z,9.81
2022-10-04T02:36:03.987Z,9.75
2022-10-04T02:37:04.055Z,9.75
2022-10-04T02:38:04.152Z,9.69
2022-10-04T02:39:04.058Z,9.69
2022-10-04T02:40:04.066Z,9.69
2022-10-04T02:41:04.069Z,9.69
2022-10-04T02:42:03.978Z,9.62
2022-10-04T02:43:04.063Z,9.62
2022-10-04T02:44:04.069Z,9.62
2022-10-04T02:45:04.249Z,9.56
2022-10-04T02:46:03.799Z,9.56
2022-10-04T02:47:03.690Z,9.50
2022-10-04T02:48:03.656Z,9.50
2022-10-04T02:49:03.746Z,9.50
2022-10-04T02:50:03.747Z,9.50
2022-10-04T02:51:03.748Z,9.44
2022-10-04T02:52:03.837Z,9.44
2022-10-04T02:53:03.818Z,9.44
2022-10-04T02:54:04.041Z,9.44
2022-10-04T02:55:04.014Z,9.38
2022-10-04T02:56:04.006Z,9.38
2022-10-04T02:57:03.922Z,9.38
2022-10-04T02:58:03.900Z,9.31
2022-10-04T02:59:03.911Z,9.31
2022-10-04T03:00:03.921Z,9.31
2022-10-04T03:01:03.854Z,9.25
2022-10-04T03:02:03.968Z,9.25
2022-10-04T03:03:03.820Z,9.25
2022-10-04T03:04:03.998Z,9.25
2022-10-04T03:05:03.907Z,9.25
2022-10-04T03:06:04.234Z,9.25
2022-10-04T03:07:04.145Z,9.25
2022-10-04T03:08:04.217Z,9.19
2022-10-04T03:09:04.213Z,9.19
2022-10-04T03:10:04.302Z,9.19
2022-10-04T03:11:04.378Z,9.19
2022-10-04T03:12:04.386Z,9.19
2022-10-04T03:13:04.388Z,9.12
2022-10-04T03:14:03.504Z,9.12
2022-10-04T03:15:03.589Z,9.12
2022-10-04T03:16:03.764Z,9.12
2022-10-04T03:17:03.743Z,9.12
2022-10-04T03:18:03.509Z,9.12
2022-10-04T03:19:03.582Z,9.12
2022-10-04T03:20:03.584Z,9.12
2022-10-04T03:21:03.757Z,9.12
2022-10-04T03:22:03.731Z,9.12
2022-10-04T03:23:04.314Z,9.12
2022-10-04T03:24:03.655Z,9.12
2022-10-04T03:25:03.818Z,9.12
2022-10-04T03:26:03.824Z,9.12
2022-10-04T03:27:03.914Z,9.12
2022-10-04T03:28:04.053Z,9.12
2022-10-04T03:29:04.066Z,9.12
2022-10-04T03:30:03.985Z,9.12
2022-10-04T03:31:04.110Z,9.12
2022-10-04T03:32:04.066Z,9.12
2022-10-04T03:33:04.067Z,9.06
2022-10-04T03:34:04.059Z,9.06
2022-10-04T03:35:03.977Z,9.06
2022-10-04T03:36:04.059Z,9.12
2022-10-04T03:37:04.177Z,9.06
2022-10-04T03:38:04.331Z,9.12
2022-10-04T03:39:04.317Z,9.12
2022-10-04T03:40:04.295Z,9.12
2022-10-04T03:41:04.539Z,9.12
2022-10-04T03:42:03.516Z,9.12
2022-10-04T03:43:03.504Z,9.12
2022-10-04T03:44:05.110Z,9.06
2022-10-04T03:45:03.750Z,9.06
2022-10-04T03:46:03.820Z,9.06
2022-10-04T03:47:03.741Z,9.06
2022-10-04T03:48:03.898Z,9.06
2022-10-04T03:49:03.902Z,9.06
2022-10-04T03:50:04.058Z,9.06
2022-10-04T03:51:04.138Z,9.06
2022-10-04T03:52:04.139Z,9.06
2022-10-04T03:53:04.077Z,9.06
2022-10-04T03:54:04.224Z,9.06
2022-10-04T03:55:04.245Z,9.12
2022-10-04T03:56:04.602Z,9.12
2022-10-04T03:57:04.306Z,9.12
2022-10-04T03:58:04.300Z,9.12
2022-10-04T03:59:04.377Z,9.12
2022-10-04T04:00:03.423Z,9.06
2022-10-04T04:01:03.738Z,9.06
2022-10-04T04:02:03.820Z,9.06
2022-10-04T04:03:03.665Z,9.06
2022-10-04T04:04:03.820Z,9.12
2022-10-04T04:05:03.986Z,9.12
2022-10-04T04:06:03.901Z,9.12
2022-10-04T04:07:03.982Z,9.12
2022-10-04T04:08:04.062Z,9.12
2022-10-04T04:09:04.176Z,9.12
2022-10-04T04:10:04.224Z,9.12
2022-10-04T04:11:04.308Z,9.12
2022-10-04T04:12:04.300Z,9.12
2022-10-04T04:13:04.385Z,9.12
2022-10-04T04:14:04.303Z,9.12
2022-10-04T04:15:04.404Z,9.12
2022-10-04T04:16:04.410Z,9.12
2022-10-04T04:17:04.551Z,9.12
2022-10-04T04:18:03.510Z,9.12
2022-10-04T04:19:03.803Z,9.12
2022-10-04T04:20:06.301Z,9.12
2022-10-04T04:21:03.592Z,9.12
2022-10-04T04:22:03.669Z,9.12
2022-10-04T04:23:03.911Z,9.12
2022-10-04T04:24:03.988Z,9.12
2022-10-04T04:25:04.329Z,9.12
2022-10-04T04:26:05.046Z,9.12
2022-10-04T04:27:04.062Z,9.12
2022-10-04T04:28:04.066Z,9.12
2022-10-04T04:29:03.979Z,9.19
2022-10-04T04:30:04.141Z,9.19
2022-10-04T04:31:04.222Z,9.19
2022-10-04T04:32:04.256Z,9.19
2022-10-04T04:33:04.386Z,9.19
2022-10-04T04:34:04.302Z,9.19
2022-10-04T04:35:04.377Z,9.19
2022-10-04T04:36:04.382Z,9.19
2022-10-04T04:37:04.463Z,9.19
2022-10-04T04:38:03.506Z,9.19
2022-10-04T04:39:03.586Z,9.19
2022-10-04T04:40:03.756Z,9.19
2022-10-04T04:41:03.746Z,9.19
2022-10-04T04:42:03.656Z,9.25
2022-10-04T04:43:03.677Z,9.25
2022-10-04T04:44:03.674Z,9.19
2022-10-04T04:45:03.655Z,9.25
2022-10-04T04:46:25.899Z,9.25
2022-10-04T04:47:03.736Z,9.25
2022-10-04T04:48:03.752Z,9.25
2022-10-04T04:49:03.733Z,9.25
2022-10-04T04:50:03.824Z,9.25
2022-10-04T04:51:03.916Z,9.25
2022-10-04T04:52:03.821Z,9.25
2022-10-04T04:53:03.819Z,9.25
2022-10-04T04:54:03.747Z,9.25
2022-10-04T04:55:03.914Z,9.25
2022-10-04T04:56:04.970Z,9.25
2022-10-04T04:57:03.913Z,9.25
2022-10-04T04:58:03.985Z,9.25
2022-10-04T04:59:04.142Z,9.25
2022-10-04T05:00:04.067Z,9.25
2022-10-04T05:01:04.144Z,9.25
2022-10-04T05:02:04.099Z,9.25
2022-10-04T05:03:04.068Z,9.25
2022-10-04T05:04:04.062Z,9.25
2022-10-04T05:05:03.984Z,9.25
2022-10-04T05:06:04.069Z,9.31
2022-10-04T05:07:04.168Z,9.25
2022-10-04T05:08:04.151Z,9.31
2022-10-04T05:09:04.151Z,9.31
2022-10-04T05:10:04.310Z,9.31
2022-10-04T05:11:04.230Z,9.31
2022-10-04T05:12:04.308Z,9.31
2022-10-04T05:13:04.388Z,9.31
2022-10-04T05:14:04.399Z,9.31
2022-10-04T05:15:04.390Z,9.31
2022-10-04T05:16:04.423Z,9.31
2022-10-04T05:17:03.586Z,9.31
2022-10-04T05:18:03.510Z,9.31
2022-10-04T05:19:04.462Z,9.31
2022-10-04T05:20:04.464Z,9.31
2022-10-04T05:21:03.498Z,9.31
2022-10-04T05:22:03.514Z,9.31
2022-10-04T05:23:03.494Z,9.31
2022-10-04T05:24:03.591Z,9.31
2022-10-04T05:25:03.506Z,9.31
2022-10-04T05:26:03.503Z,9.31
2022-10-04T05:27:03.509Z,9.31
2022-10-04T05:28:03.615Z,9.38
2022-10-04T05:29:03.665Z,9.31
2022-10-04T05:30:03.671Z,9.38
2022-10-04T05:31:03.665Z,9.38
2022-10-04T05:32:03.671Z,9.38
2022-10-04T05:33:03.588Z,9.38
2022-10-04T05:34:03.743Z,9.38
2022-10-04T05:35:03.722Z,9.38
2022-10-04T05:36:03.745Z,9.38
2022-10-04T05:37:03.677Z,9.38
2022-10-04T05:38:03.751Z,9.38
2022-10-04T05:39:03.737Z,9.38
2022-10-04T05:40:03.792Z,9.38
2022-10-04T05:41:03.655Z,9.38
2022-10-04T05:42:03.822Z,9.38
2022-10-04T05:43:03.910Z,9.38
2022-10-04T05:44:03.918Z,9.44
2022-10-04T05:45:04.879Z,9.44
2022-10-04T05:46:04.061Z,9.44
2022-10-04T05:47:04.869Z,9.44
2022-10-04T05:48:04.069Z,9.38
2022-10-04T05:49:04.063Z,9.44
2022-10-04T05:50:04.223Z,9.44
2022-10-04T05:51:04.225Z,9.44
2022-10-04T05:52:04.311Z,9.44
2022-10-04T05:53:04.217Z,9.44
2022-10-04T05:54:04.219Z,9.44
2022-10-04T05:55:04.481Z,9.44
2022-10-04T05:56:04.311Z,9.69
2022-10-04T05:57:03.480Z,9.94
2022-10-04T05:58:04.555Z,9.88
2022-10-04T05:59:04.477Z,9.88
2022-10-04T06:00:04.852Z,9.81
2022-10-04T06:01:04.417Z,10.00
2022-10-04T06:02:04.526Z,10.19
2022-10-04T06:03:04.468Z,10.25
2022-10-04T06:04:03.586Z,10.25
2022-10-04T06:05:03.666Z,10.19
2022-10-04T06:06:03.750Z,10.25
2022-10-04T06:07:03.826Z,10.19
2022-10-04T06:08:04.316Z,10.12
2022-10-04T06:09:04.383Z,10.06
2022-10-04T06:10:04.382Z,10.00
2022-10-04T06:11:03.499Z,10.00
2022-10-04T06:12:03.674Z,10.00
2022-10-04T06:13:04.296Z,9.94
2022-10-04T06:14:04.383Z,9.94
2022-10-04T06:15:03.596Z,10.06
2022-10-04T06:16:03.584Z,10.00
2022-10-04T06:17:03.902Z,10.00
2022-10-04T06:18:03.815Z,9.94
2022-10-04T06:19:03.990Z,9.94
2022-10-04T06:20:04.149Z,9.94
2022-10-04T06:21:04.307Z,9.88
2022-10-04T06:22:04.241Z,9.88
2022-10-04T06:23:04.304Z,9.88
2022-10-04T06:24:04.469Z,9.88
2022-10-04T06:25:04.458Z,9.88
2022-10-04T06:26:04.477Z,9.88
2022-10-04T06:27:03.508Z,9.94
2022-10-04T06:28:04.533Z,9.94
2022-10-04T06:29:04.484Z,9.94
2022-10-04T06:30:03.511Z,9.94
2022-10-04T06:31:03.589Z,10.12
2022-10-04T06:32:03.670Z,10.06
2022-10-04T06:33:03.590Z,10.06
2022-10-04T06:34:03.749Z,10.06
2022-10-04T06:35:03.833Z,10.00
2022-10-04T06:36:03.919Z,10.00
2022-10-04T06:37:03.901Z,10.00
2022-10-04T06:38:03.988Z,10.00
2022-10-04T06:39:04.329Z,10.00
2022-10-04T06:40:03.903Z,10.06
2022-10-04T06:41:03.977Z,10.12
2022-10-04T06:42:04.183Z,10.12
2022-10-04T06:43:03.506Z,10.12
2022-10-04T06:44:03.590Z,10.12
2022-10-04T06:45:03.585Z,10.12
2022-10-04T06:46:03.713Z,10.12
2022-10-04T06:47:03.594Z,10.12
2022-10-04T06:48:03.675Z,10.12
2022-10-04T06:49:03.762Z,10.12
2022-10-04T06:50:04.329Z,10.19
2022-10-04T06:51:04.463Z,10.19
2022-10-04T06:52:04.549Z,10.19
2022-10-04T06:53:04.382Z,10.19
2022-10-04T06:54:04.471Z,10.19
2022-10-04T06:55:04.460Z,10.19
2022-10-04T06:56:03.495Z,10.19
2022-10-04T06:57:03.578Z,10.25
2022-10-04T06:58:03.670Z,10.25
2022-10-04T06:59:03.589Z,10.25
2022-10-04T07:00:03.506Z,10.25
2022-10-04T07:01:03.649Z,10.25
2022-10-04T07:02:03.729Z,10.31
2022-10-04T07:03:03.664Z,10.31
2022-10-04T07:04:03.758Z,10.31
2022-10-04T07:05:08.354Z,10.44
2022-10-04T07:06:03.764Z,10.44
2022-10-04T07:07:04.004Z,10.50
2022-10-04T07:08:04.003Z,10.50
2022-10-04T07:09:04.011Z,10.56
2022-10-04T07:10:04.138Z,10.62
2022-10-04T07:11:04.142Z,10.62
2022-10-04T07:12:04.156Z,10.62
2022-10-04T07:13:04.145Z,10.62
2022-10-04T07:14:04.217Z,10.62
2022-10-04T07:15:04.221Z,10.62
2022-10-04T07:16:04.358Z,10.62
2022-10-04T07:17:04.403Z,10.62
2022-10-04T07:18:04.394Z,10.62
2022-10-04T07:19:04.495Z,10.62
2022-10-04T07:20:04.481Z,10.62
2022-10-04T07:21:04.478Z,10.69
2022-10-04T07:22:03.524Z,10.69
2022-10-04T07:23:03.512Z,10.69
2022-10-04T07:24:03.610Z,10.69
2022-10-04T07:25:03.593Z,10.75
2022-10-04T07:26:03.672Z,10.75
2022-10-04T07:27:03.665Z,10.75
2022-10-04T07:28:03.771Z,10.75
2022-10-04T07:29:03.833Z,10.81
2022-10-04T07:30:03.827Z,10.81
2022-10-04T07:31:04.055Z,10.81
2022-10-04T07:32:03.900Z,10.81
2022-10-04T07:33:03.996Z,10.88
2022-10-04T07:34:04.152Z,10.88
2022-10-04T07:35:04.229Z,10.88
2022-10-04T07:36:04.314Z,10.88
2022-10-04T07:37:04.384Z,10.94
2022-10-04T07:38:04.463Z,10.94
2022-10-04T07:39:04.465Z,10.94
2022-10-04T07:40:03.595Z,11.00
2022-10-04T07:41:03.595Z,11.00
2022-10-04T07:42:03.602Z,11.00
2022-10-04T07:43:03.583Z,11.06
2022-10-04T07:44:03.749Z,11.06
2022-10-04T07:45:03.828Z,11.12
2022-10-04T07:46:03.991Z,11.12
2022-10-04T07:47:03.984Z,11.12
2022-10-04T07:48:03.985Z,11.19
2022-10-04T07:49:04.077Z,11.19
2022-10-04T07:50:04.083Z,11.25
2022-10-04T07:51:04.151Z,11.25
2022-10-04T07:52:04.143Z,11.25
2022-10-04T07:53:07.209Z,11.25
2022-10-04T07:54:03.672Z,11.31
2022-10-04T07:55:03.678Z,11.31
2022-10-04T07:56:03.578Z,11.31
2022-10-04T07:57:03.670Z,11.38
2022-10-04T07:58:03.747Z,11.38
2022-10-04T07:59:03.913Z,11.38
2022-10-04T08:00:03.904Z,11.44
2022-10-04T08:01:03.912Z,11.44
2022-10-04T08:02:04.028Z,11.50
2022-10-04T08:03:04.182Z,11.50
2022-10-04T08:04:04.174Z,11.50
2022-10-04T08:05:04.221Z,11.56
2022-10-04T08:06:04.231Z,11.56
2022-10-04T08:07:04.473Z,11.56
2022-10-04T08:08:03.430Z,11.62
2022-10-04T08:09:03.667Z,11.62
2022-10-04T08:10:03.591Z,11.62
2022-10-04T08:11:03.713Z,11.69
2022-10-04T08:12:03.671Z,11.69
2022-10-04T08:13:03.746Z,11.69
2022-10-04T08:14:03.749Z,11.75
2022-10-04T08:15:03.918Z,11.75
2022-10-04T08:16:03.946Z,11.75
2022-10-04T08:17:03.994Z,11.81
2022-10-04T08:18:03.921Z,11.81
2022-10-04T08:19:04.002Z,11.81
2022-10-04T08:20:03.992Z,11.88
2022-10-04T08:21:04.078Z,11.88
2022-10-04T08:22:04.071Z,11.94
2022-10-04T08:23:04.312Z,11.94
2022-10-04T08:24:04.240Z,12.00
2022-10-04T08:25:04.309Z,12.00
2022-10-04T08:26:04.319Z,12.00
2022-10-04T08:27:04.225Z,12.06
2022-10-04T08:28:04.347Z,12.06
2022-10-04T08:29:04.301Z,12.12
2022-10-04T08:30:04.470Z,12.12
2022-10-04T08:31:03.579Z,12.19
2022-10-04T08:32:05.334Z,12.19
2022-10-04T08:33:03.595Z,12.19
2022-10-04T08:34:04.466Z,12.25
2022-10-04T08:35:03.684Z,12.25
2022-10-04T08:36:03.748Z,12.31
2022-10-04T08:37:03.681Z,12.31
2022-10-04T08:38:04.066Z,12.38
2022-10-04T08:39:04.070Z,12.38
2022-10-04T08:40:04.171Z,12.44
2022-10-04T08:41:04.067Z,12.44
2022-10-04T08:42:04.228Z,12.50
2022-10-04T08:43:04.237Z,12.50
2022-10-04T08:44:04.425Z,12.56
2022-10-04T08:45:04.313Z,12.56
2022-10-04T08:46:04.471Z,12.62
2022-10-04T08:47:04.479Z,12.62
2022-10-04T08:48:04.389Z,12.69
2022-10-04T08:49:03.593Z,12.69
2022-10-04T08:50:03.583Z,12.75
2022-10-04T08:51:03.509Z,12.75
2022-10-04T08:52:03.586Z,12.81
2022-10-04T08:53:06.384Z,12.75
2022-10-04T08:54:03.824Z,12.81
2022-10-04T08:55:03.908Z,12.81
2022-10-04T08:56:03.836Z,12.88
2022-10-04T08:57:03.918Z,12.88
2022-10-04T08:58:03.987Z,12.94
2022-10-04T08:59:03.988Z,12.94
2022-10-04T09:00:03.992Z,13.00
2022-10-04T09:01:04.152Z,13.00
2022-10-04T09:02:03.998Z,13.06
2022-10-04T09:03:04.052Z,13.06
2022-10-04T09:04:04.154Z,13.12
2022-10-04T09:05:04.147Z,13.12
2022-10-04T09:06:04.230Z,13.12
2022-10-04T09:07:04.217Z,13.19
2022-10-04T09:08:04.226Z,13.19
2022-10-04T09:09:04.319Z,13.19
2022-10-04T09:10:04.311Z,13.19
2022-10-04T09:11:04.385Z,13.25
2022-10-04T09:12:04.484Z,13.25
2022-10-04T09:13:04.469Z,13.31
2022-10-04T09:14:04.548Z,13.38
2022-10-04T09:15:03.592Z,13.38
2022-10-04T09:16:04.515Z,13.38
2022-10-04T09:17:06.866Z,13.44
2022-10-04T09:18:03.983Z,13.50
2022-10-04T09:19:04.047Z,13.56
2022-10-04T09:20:19.988Z,13.56
2022-10-04T09:21:03.997Z,13.62
2022-10-04T09:22:03.906Z,13.62
2022-10-04T09:23:06.337Z,13.69
2022-10-04T09:24:03.903Z,13.69
2022-10-04T09:25:04.387Z,13.75
2022-10-04T09:26:03.507Z,13.75
2022-10-04T09:27:03.606Z,13.81
2022-10-04T09:28:03.613Z,13.81
2022-10-04T09:29:05.025Z,13.88
2022-10-04T09:30:04.223Z,13.94
2022-10-04T09:31:04.517Z,14.00
2022-10-04T09:32:04.404Z,14.00
2022-10-04T09:33:04.385Z,14.06
2022-10-04T09:34:04.393Z,14.12
2022-10-04T09:35:03.607Z,14.12
2022-10-04T09:36:03.511Z,14.19
2022-10-04T09:37:03.532Z,14.25
2022-10-04T09:38:03.513Z,14.31
2022-10-04T09:39:25.535Z,14.38
2022-10-04T09:40:03.584Z,14.44
2022-10-04T09:41:03.676Z,14.44
2022-10-04T09:42:03.526Z,14.50
2022-10-04T09:43:03.588Z,14.56
2022-10-04T09:44:03.757Z,14.62
2022-10-04T09:45:03.753Z,14.69
2022-10-04T09:46:03.681Z,14.75
2022-10-04T09:47:03.671Z,14.81
2022-10-04T09:48:03.831Z,14.88
2022-10-04T09:49:03.838Z,14.88
2022-10-04T09:50:03.909Z,14.94
2022-10-04T09:51:04.065Z,15.00
2022-10-04T09:52:04.141Z,15.06
2022-10-04T09:53:04.235Z,15.12
2022-10-04T09:54:04.320Z,15.12
2022-10-04T09:55:03.908Z,15.19
2022-10-04T09:56:03.904Z,15.25
2022-10-04T09:57:03.982Z,15.25
2022-10-04T09:58:03.984Z,15.31
2022-10-04T09:59:04.063Z,15.38
2022-10-04T10:00:04.224Z,15.38
2022-10-04T10:01:04.233Z,15.44
2022-10-04T10:02:04.348Z,15.50
2022-10-04T10:03:04.436Z,15.50
2022-10-04T10:04:04.761Z,15.56
2022-10-04T10:05:03.423Z,15.56
2022-10-04T10:07:03.590Z,15.69
2022-10-04T10:08:03.584Z,15.69
2022-10-04T10:09:03.516Z,15.75
2022-10-04T10:10:03.508Z,15.75
2022-10-04T10:11:03.504Z,15.81
2022-10-04T10:12:03.502Z,15.88
2022-10-04T10:13:03.519Z,15.88
2022-10-04T10:14:03.604Z,15.94
2022-10-04T10:15:03.510Z,16.00
2022-10-04T10:16:03.638Z,16.00
2022-10-04T10:17:03.834Z,16.06
2022-10-04T10:18:03.818Z,16.06
2022-10-04T10:19:03.833Z,16.06
2022-10-04T10:20:03.833Z,16.12
2022-10-04T10:21:03.825Z,16.19
2022-10-04T10:22:03.907Z,16.19
2022-10-04T10:23:03.992Z,16.25
2022-10-04T10:24:04.152Z,16.25
2022-10-04T10:25:04.236Z,16.25
2022-10-04T10:26:04.309Z,16.31
2022-10-04T10:27:04.392Z,16.31
2022-10-04T10:28:04.363Z,16.31
2022-10-04T10:29:04.469Z,16.38
2022-10-04T10:30:04.472Z,16.38
2022-10-04T10:31:04.416Z,16.38
2022-10-04T10:32:04.459Z,16.38
2022-10-04T10:33:03.510Z,16.44
2022-10-04T10:34:03.504Z,16.44
2022-10-04T10:35:03.579Z,16.50
2022-10-04T10:36:03.599Z,16.50
2022-10-04T10:37:03.664Z,16.50
2022-10-04T10:38:04.711Z,16.50
2022-10-04T10:39:03.743Z,16.50
2022-10-04T10:40:03.837Z,16.50
2022-10-04T10:41:03.820Z,16.50
2022-10-04T10:42:03.919Z,16.56
2022-10-04T10:43:03.902Z,16.56
2022-10-04T10:44:03.900Z,16.56
2022-10-04T10:45:03.905Z,16.62
2022-10-04T10:46:04.046Z,16.62
2022-10-04T10:47:04.149Z,16.62
2022-10-04T10:48:04.237Z,16.62
2022-10-04T10:49:04.231Z,16.62
2022-10-04T10:50:04.308Z,16.69
2022-10-04T10:51:04.346Z,16.69
2022-10-04T10:52:04.468Z,16.69
2022-10-04T10:53:04.469Z,16.75
2022-10-04T10:54:04.393Z,16.75
2022-10-04T10:55:04.471Z,16.75
2022-10-04T10:56:04.486Z,16.81
2022-10-04T10:57:04.467Z,16.81
2022-10-04T10:58:03.578Z,16.81
2022-10-04T10:59:03.503Z,16.81
2022-10-04T11:00:03.596Z,16.81
2022-10-04T11:01:03.778Z,16.81
2022-10-04T11:02:03.691Z,16.81
2022-10-04T11:03:12.989Z,16.88
2022-10-04T11:04:03.757Z,16.88
2022-10-04T11:05:03.744Z,16.88
2022-10-04T11:06:03.833Z,16.94
2022-10-04T11:07:03.999Z,16.94
2022-10-04T11:08:04.148Z,17.00
2022-10-04T11:09:04.308Z,17.00
2022-10-04T11:10:04.340Z,17.00
2022-10-04T11:11:04.383Z,17.00
2022-10-04T11:12:04.472Z,17.00
2022-10-04T11:13:03.507Z,17.06
2022-10-04T11:14:03.589Z,17.06
2022-10-04T11:15:03.663Z,17.12
2022-10-04T11:16:03.741Z,17.12
2022-10-04T11:17:03.822Z,17.12
2022-10-04T11:18:03.909Z,17.19
2022-10-04T11:19:03.830Z,17.19
2022-10-04T11:20:03.830Z,17.25
2022-10-04T11:21:03.912Z,17.25
2022-10-04T11:22:03.900Z,17.31
2022-10-04T11:23:03.985Z,17.31
2022-10-04T11:24:03.999Z,17.38
2022-10-04T11:25:03.989Z,17.38
2022-10-04T11:26:03.979Z,17.38
2022-10-04T11:27:04.176Z,17.38
2022-10-04T11:28:04.204Z,17.44
2022-10-04T11:29:04.220Z,17.44
2022-10-04T11:30:04.306Z,17.44
2022-10-04T11:31:04.528Z,17.50
2022-10-04T11:32:03.580Z,17.50
2022-10-04T11:33:03.666Z,17.50
2022-10-04T11:34:03.606Z,17.50
2022-10-04T11:35:03.835Z,17.50
2022-10-04T11:36:03.819Z,17.56
2022-10-04T11:37:03.902Z,17.56
2022-10-04T11:38:03.919Z,17.56
2022-10-04T11:39:03.988Z,17.56
2022-10-04T11:40:03.981Z,17.56
2022-10-04T11:41:04.159Z,17.62
2022-10-04T11:42:04.257Z,17.62
2022-10-04T11:43:04.312Z,17.62
2022-10-04T11:44:04.470Z,17.62
2022-10-04T11:45:03.609Z,17.69
2022-10-04T11:46:06.262Z,17.69
2022-10-04T11:47:03.774Z,17.69
2022-10-04T11:48:03.677Z,17.69
2022-10-04T11:49:03.755Z,17.69
2022-10-04T11:50:03.675Z,17.69
2022-10-04T11:51:03.842Z,17.69
2022-10-04T11:52:03.904Z,17.69
2022-10-04T11:53:03.903Z,17.69
2022-10-04T11:54:03.904Z,17.69
2022-10-04T11:55:03.990Z,17.69
2022-10-04T11:56:03.983Z,17.69
2022-10-04T11:57:04.063Z,17.75
2022-10-04T11:58:06.468Z,17.75
2022-10-04T11:59:04.152Z,17.81
2022-10-04T12:00:04.143Z,17.81
2022-10-04T12:01:04.148Z,17.81
2022-10-04T12:02:04.319Z,17.88
2022-10-04T12:03:04.292Z,17.88
2022-10-04T12:04:04.304Z,17.88
2022-10-04T12:05:04.143Z,17.94
2022-10-04T12:06:04.306Z,17.94
2022-10-04T12:07:04.228Z,17.94
2022-10-04T12:08:04.226Z,17.94
2022-10-04T12:09:04.384Z,17.94
2022-10-04T12:10:04.386Z,17.94
2022-10-04T12:11:04.391Z,17.94
2022-10-04T12:12:04.491Z,18.00
2022-10-04T12:13:04.467Z,17.94
2022-10-04T12:14:04.403Z,18.00
2022-10-04T12:15:04.322Z,18.00
2022-10-04T12:16:04.386Z,18.00
2022-10-04T12:17:04.482Z,18.00
2022-10-04T12:18:04.388Z,18.00
2022-10-04T12:19:04.234Z,18.00
2022-10-04T12:20:06.610Z,18.00
2022-10-04T12:21:04.225Z,18.00
2022-10-04T12:22:04.233Z,18.00
2022-10-04T12:23:04.308Z,18.00
2022-10-04T12:24:04.323Z,18.00
2022-10-04T12:25:04.304Z,18.06
2022-10-04T12:26:04.309Z,18.06
2022-10-04T12:27:04.399Z,18.06
2022-10-04T12:28:04.486Z,18.06
2022-10-04T12:29:04.302Z,18.06
2022-10-04T12:30:04.319Z,18.06
2022-10-04T12:31:04.387Z,18.00
2022-10-04T12:32:04.457Z,18.00
2022-10-04T12:33:04.398Z,18.00
2022-10-04T12:34:04.304Z,18.00
2022-10-04T12:35:04.390Z,18.00
2022-10-04T12:36:04.383Z,18.00
2022-10-04T12:37:04.484Z,18.00
2022-10-04T12:38:04.472Z,18.00
2022-10-04T12:39:03.509Z,18.00
2022-10-04T12:40:04.512Z,18.06
2022-10-04T12:41:03.503Z,18.06
2022-10-04T12:42:03.581Z,18.06
2022-10-04T12:43:03.587Z,18.06
2022-10-04T12:44:03.501Z,18.06
2022-10-04T12:45:03.505Z,18.06
2022-10-04T12:46:03.568Z,18.06
2022-10-04T12:47:03.510Z,18.06
2022-10-04T12:48:03.593Z,18.06
2022-10-04T12:49:03.597Z,18.06
2022-10-04T12:50:04.556Z,18.06
2022-10-04T12:51:04.458Z,18.06
2022-10-04T12:52:03.501Z,18.06
2022-10-04T12:53:03.499Z,18.06
2022-10-04T12:54:03.583Z,18.06
2022-10-04T12:55:03.591Z,18.06
2022-10-04T12:56:04.385Z,18.00
2022-10-04T12:57:04.465Z,18.00
2022-10-04T12:58:04.302Z,18.00
2022-10-04T12:59:04.388Z,18.00
2022-10-04T13:00:03.514Z,17.94
2022-10-04T13:01:03.659Z,18.00